Time;durP1;ratioP1;P1;durP2;ratioP2;P2;SDS_P1;SDS_P2;PMS_P1;PMS_P2;Temp;Humidity;BMP_temperature;BMP_pressure;BME280_temperature;BME280_humidity;BME280_pressure;Samples;Min_cycle;Max_cycle;Signal;HPM_P1;HPM_P2
2022/01/13 00:01:43;;;;;;;4.05;2.80;;;;;;;;;;5002882;28;20030;-53
2022/01/13 00:04:10;;;;;;;4.43;2.85;;;;;;;;;;5004125;28;20025;-55
2022/01/13 00:06:35;;;;;;;4.00;2.72;;;;;;;;;;5004601;28;20058;-55
2022/01/13 00:09:01;;;;;;;4.00;2.88;;;;;;;;;;5004558;28;20591;-55
2022/01/13 00:11:26;;;;;;;4.05;3.13;;;;;;;;;;5004446;28;20072;-55
2022/01/13 00:22:00;;;;;;;3.97;3.08;;;;;;;;;;5008396;28;20607;-55
2022/01/13 00:24:26;;;;;;;3.97;2.92;;;;;;;;;;4991352;28;20080;-55
2022/01/13 00:26:53;;;;;;;3.70;2.80;;;;;;;;;;5007872;28;20021;-55
2022/01/13 00:29:24;;;;;;;4.05;2.95;;;;;;;;;;5007841;28;20291;-55
2022/01/13 00:31:49;;;;;;;4.60;3.10;;;;;;;;;;5007695;28;20029;-55
2022/01/13 00:34:14;;;;;;;4.27;2.83;;;;;;;;;;5007673;28;20009;-55
2022/01/13 00:36:40;;;;;;;4.47;3.15;;;;;;;;;;5007946;28;20275;-55
2022/01/13 00:39:05;;;;;;;4.63;3.03;;;;;;;;;;5007586;28;20028;-55
2022/01/13 00:41:31;;;;;;;4.85;3.22;;;;;;;;;;5007679;28;20030;-55
2022/01/13 00:43:56;;;;;;;4.63;3.40;;;;;;;;;;5007151;28;20026;-53
2022/01/13 00:46:24;;;;;;;4.40;3.35;;;;;;;;;;5007640;28;20273;-54
2022/01/13 00:48:49;;;;;;;5.43;3.40;;;;;;;;;;5007427;28;20037;-56
2022/01/13 00:51:14;;;;;;;4.65;3.28;;;;;;;;;;5006093;28;20512;-56
2022/01/13 00:53:40;;;;;;;4.43;3.10;;;;;;;;;;5007158;28;20030;-55
2022/01/13 00:56:05;;;;;;;4.88;3.28;;;;;;;;;;5007215;28;20044;-54
2022/01/13 00:58:31;;;;;;;5.03;3.35;;;;;;;;;;5007302;28;20485;-54
2022/01/13 01:00:57;;;;;;;4.90;3.55;;;;;;;;;;5007457;28;20034;-55
2022/01/13 01:03:22;;;;;;;4.45;3.40;;;;;;;;;;5005792;28;20452;-54
2022/01/13 01:05:48;;;;;;;4.22;3.42;;;;;;;;;;5007375;28;20149;-55
2022/01/13 01:08:13;;;;;;;5.10;3.40;;;;;;;;;;5005339;28;20034;-56
2022/01/13 01:10:38;;;;;;;5.20;3.53;;;;;;;;;;5007007;28;20297;-54
2022/01/13 01:13:11;;;;;;;5.53;4.30;;;;;;;;;;5007220;28;20083;-53
2022/01/13 01:15:36;;;;;;;5.38;3.42;;;;;;;;;;5007180;28;20471;-55
2022/01/13 01:18:12;;;;;;;5.22;3.88;;;;;;;;;;5006983;28;20042;-54
2022/01/13 01:20:48;;;;;;;5.32;3.70;;;;;;;;;;5007209;28;20030;-55
2022/01/13 01:23:17;;;;;;;5.18;3.78;;;;;;;;;;5006986;28;20412;-56
2022/01/13 01:25:48;;;;;;;5.10;3.60;;;;;;;;;;5007078;28;20034;-55
2022/01/13 01:28:20;;;;;;;5.40;4.05;;;;;;;;;;5006175;28;20044;-55
2022/01/13 01:30:49;;;;;;;4.95;3.50;;;;;;;;;;5006685;28;20504;-55
2022/01/13 01:33:17;;;;;;;6.20;3.97;;;;;;;;;;5006568;28;20550;-54
2022/01/13 01:35:43;;;;;;;5.40;4.00;;;;;;;;;;5006875;28;20033;-55
2022/01/13 01:38:09;;;;;;;5.03;3.85;;;;;;;;;;5005003;28;20030;-55
2022/01/13 01:40:34;;;;;;;5.72;4.20;;;;;;;;;;5006871;28;20391;-53
2022/01/13 01:42:59;;;;;;;5.03;4.23;;;;;;;;;;5006684;28;20026;-56
2022/01/13 01:45:31;;;;;;;4.95;3.53;;;;;;;;;;5006845;28;20281;-55
2022/01/13 01:47:56;;;;;;;6.03;3.83;;;;;;;;;;5006160;28;20817;-53
2022/01/13 01:50:24;;;;;;;4.80;3.27;;;;;;;;;;5006452;28;20037;-55
2022/01/13 01:52:50;;;;;;;5.80;4.15;;;;;;;;;;5006441;28;20280;-55
2022/01/13 01:55:15;;;;;;;5.50;4.10;;;;;;;;;;5006378;28;20408;-54
2022/01/13 01:57:41;;;;;;;5.97;4.22;;;;;;;;;;5006236;28;20026;-55
2022/01/13 02:00:08;;;;;;;6.03;3.97;;;;;;;;;;5006359;28;20049;-55
2022/01/13 02:02:33;;;;;;;5.43;3.92;;;;;;;;;;5007157;28;20033;-54
2022/01/13 02:04:59;;;;;;;4.88;3.72;;;;;;;;;;5006920;28;20029;-56
2022/01/13 02:07:24;;;;;;;5.35;4.07;;;;;;;;;;5006431;28;20037;-55
2022/01/13 02:09:52;;;;;;;6.57;4.57;;;;;;;;;;5007270;28;20406;-55
2022/01/13 02:12:29;;;;;;;6.55;4.50;;;;;;;;;;5007986;28;20505;-54
2022/01/13 02:15:28;;;;;;;6.63;4.43;;;;;;;;;;5011417;28;20101;-55
2022/01/13 02:17:40;;;;;;;7.00;4.40;;;;;;;;;;5007420;28;20068;-53
2022/01/13 02:20:06;;;;;;;6.00;4.60;;;;;;;;;;5006951;28;20476;-58
2022/01/13 02:22:31;;;;;;;5.65;4.25;;;;;;;;;;5006848;28;20116;-59
2022/01/13 02:24:56;;;;;;;5.60;4.15;;;;;;;;;;5006530;28;20504;-60
2022/01/13 02:27:21;;;;;;;6.73;4.80;;;;;;;;;;5006024;28;20029;-56
2022/01/13 02:29:47;;;;;;;6.40;4.90;;;;;;;;;;5006215;28;20096;-59
2022/01/13 02:32:12;;;;;;;5.95;4.22;;;;;;;;;;5005651;28;20331;-55
2022/01/13 02:34:39;;;;;;;6.50;4.50;;;;;;;;;;5005960;28;20076;-56
2022/01/13 02:37:04;;;;;;;5.43;4.10;;;;;;;;;;5005920;28;20077;-55
2022/01/13 02:39:29;;;;;;;6.43;4.50;;;;;;;;;;5006100;28;20092;-52
2022/01/13 02:41:58;;;;;;;6.13;4.27;;;;;;;;;;5005998;28;20076;-55
2022/01/13 02:44:24;;;;;;;6.85;4.68;;;;;;;;;;4990776;28;20277;-54
2022/01/13 02:49:19;;;;;;;7.10;5.10;;;;;;;;;;5007350;28;20048;-56
2022/01/13 02:51:44;;;;;;;7.30;4.50;;;;;;;;;;5006162;28;20034;-55
2022/01/13 02:54:10;;;;;;;6.75;4.63;;;;;;;;;;5005469;28;20037;-56
2022/01/13 02:56:36;;;;;;;6.15;4.45;;;;;;;;;;5005939;28;20026;-55
2022/01/13 02:59:01;;;;;;;6.38;4.53;;;;;;;;;;5005707;28;20057;-55
2022/01/13 03:01:26;;;;;;;6.78;4.70;;;;;;;;;;5005790;28;20033;-56
2022/01/13 03:03:52;;;;;;;5.78;4.32;;;;;;;;;;5005782;28;20566;-55
2022/01/13 03:06:21;;;;;;;6.35;4.72;;;;;;;;;;5005663;28;22515;-56
2022/01/13 03:08:46;;;;;;;7.40;5.20;;;;;;;;;;5005900;28;20117;-55
2022/01/13 03:11:12;;;;;;;7.07;4.90;;;;;;;;;;5005641;28;20125;-56
2022/01/13 03:13:38;;;;;;;6.70;4.60;;;;;;;;;;5003558;28;20084;-55
2022/01/13 03:16:06;;;;;;;6.72;4.70;;;;;;;;;;5004573;28;20022;-54
2022/01/13 03:18:32;;;;;;;6.90;4.88;;;;;;;;;;5005061;28;20037;-56
2022/01/13 03:20:57;;;;;;;7.30;4.87;;;;;;;;;;5004822;28;20044;-55
2022/01/13 03:23:22;;;;;;;6.37;4.83;;;;;;;;;;5004864;28;20285;-55
2022/01/13 03:25:48;;;;;;;6.55;5.05;;;;;;;;;;5004997;28;20277;-55
2022/01/13 03:28:17;;;;;;;6.53;4.93;;;;;;;;;;5004626;28;20612;-55
2022/01/13 03:30:43;;;;;;;6.53;4.93;;;;;;;;;;5004692;28;20436;-52
2022/01/13 03:33:08;;;;;;;7.60;4.90;;;;;;;;;;5004569;28;20026;-56
2022/01/13 03:35:34;;;;;;;7.68;5.10;;;;;;;;;;5004954;28;20025;-56
2022/01/13 03:37:59;;;;;;;7.00;5.03;;;;;;;;;;5003186;28;20118;-55
2022/01/13 03:40:25;;;;;;;6.17;4.80;;;;;;;;;;5005012;28;20037;-55
2022/01/13 03:42:53;;;;;;;7.57;5.00;;;;;;;;;;5004949;28;20751;-55
2022/01/13 03:45:18;;;;;;;7.85;5.00;;;;;;;;;;5004800;28;20088;-55
2022/01/13 03:47:44;;;;;;;6.65;4.60;;;;;;;;;;5005064;28;20018;-54
2022/01/13 03:50:09;;;;;;;7.70;5.17;;;;;;;;;;5004164;28;20040;-56
2022/01/13 03:52:54;;;;;;;7.60;5.17;;;;;;;;;;5007155;28;20264;-56
2022/01/13 03:55:40;;;;;;;8.15;5.05;;;;;;;;;;5008566;28;20272;-53
2022/01/13 03:58:36;;;;;;;6.88;4.85;;;;;;;;;;5008446;28;20030;-53
2022/01/13 04:01:20;;;;;;;7.15;4.97;;;;;;;;;;5008620;28;20026;-55
2022/01/13 04:03:46;;;;;;;6.63;4.90;;;;;;;;;;5008465;28;20484;-54
2022/01/13 04:06:11;;;;;;;6.75;4.78;;;;;;;;;;5008355;28;20159;-55
2022/01/13 04:08:36;;;;;;;6.63;4.90;;;;;;;;;;5008669;28;20034;-55
2022/01/13 04:11:05;;;;;;;6.60;5.07;;;;;;;;;;5008552;28;20041;-55
2022/01/13 04:14:13;;;;;;;6.60;5.05;;;;;;;;;;5007993;28;20029;-53
2022/01/13 04:16:20;;;;;;;6.47;5.10;;;;;;;;;;5002213;28;20057;-53
2022/01/13 04:18:46;;;;;;;7.25;5.03;;;;;;;;;;5008427;28;20017;-55
2022/01/13 04:21:11;;;;;;;6.63;4.88;;;;;;;;;;5008320;28;20511;-54
2022/01/13 04:23:36;;;;;;;6.83;4.90;;;;;;;;;;5008055;28;20543;-54
2022/01/13 04:26:05;;;;;;;7.00;5.25;;;;;;;;;;5007687;28;20683;-54
2022/01/13 04:28:31;;;;;;;6.38;4.90;;;;;;;;;;5008445;28;20018;-54
2022/01/13 04:31:02;;;;;;;7.13;4.88;;;;;;;;;;5007854;28;21460;-53
2022/01/13 04:33:28;;;;;;;6.80;5.07;;;;;;;;;;5007834;28;20029;-52
2022/01/13 04:35:53;;;;;;;6.93;4.60;;;;;;;;;;5008177;28;20025;-54
2022/01/13 04:38:19;;;;;;;7.68;5.40;;;;;;;;;;5007470;28;20022;-55
2022/01/13 04:40:46;;;;;;;5.72;4.53;;;;;;;;;;5008064;28;20105;-52
2022/01/13 04:43:12;;;;;;;7.25;4.95;;;;;;;;;;5007742;28;20037;-55
2022/01/13 04:45:37;;;;;;;7.80;5.50;;;;;;;;;;5007958;28;20029;-55
2022/01/13 04:48:02;;;;;;;7.53;5.20;;;;;;;;;;5007591;28;20389;-55
2022/01/13 04:50:28;;;;;;;6.35;4.65;;;;;;;;;;5005876;28;20516;-54
2022/01/13 04:52:53;;;;;;;7.20;4.88;;;;;;;;;;5007282;28;20061;-56
2022/01/13 04:55:24;;;;;;;7.07;5.05;;;;;;;;;;5007630;28;20135;-56
2022/01/13 04:57:49;;;;;;;6.75;5.03;;;;;;;;;;5007756;28;20397;-55
2022/01/13 05:00:15;;;;;;;6.28;4.68;;;;;;;;;;5006569;28;20021;-55
2022/01/13 05:02:40;;;;;;;6.50;4.82;;;;;;;;;;4988233;28;20022;-55
2022/01/13 05:05:05;;;;;;;6.03;4.68;;;;;;;;;;4988083;28;20117;-56
2022/01/13 05:07:31;;;;;;;7.20;5.18;;;;;;;;;;4988267;28;20018;-54
2022/01/13 05:09:56;;;;;;;7.30;5.10;;;;;;;;;;4988387;28;20525;-54
2022/01/13 05:12:27;;;;;;;7.10;4.90;;;;;;;;;;4989209;28;20033;-53
2022/01/13 05:14:56;;;;;;;7.00;4.78;;;;;;;;;;4988042;28;20022;-55
2022/01/13 05:20:14;;;;;;;6.72;5.00;;;;;;;;;;4990973;28;20038;-54
2022/01/13 05:22:40;;;;;;;7.28;5.45;;;;;;;;;;5000411;28;20046;-54
2022/01/13 05:25:05;;;;;;;7.13;5.30;;;;;;;;;;4987891;28;20112;-56
2022/01/13 05:27:30;;;;;;;6.78;5.03;;;;;;;;;;4987952;28;20273;-56
2022/01/13 05:29:55;;;;;;;6.00;4.50;;;;;;;;;;5002038;28;20037;-54
2022/01/13 05:32:21;;;;;;;6.57;4.67;;;;;;;;;;4989812;28;20057;-55
2022/01/13 05:34:46;;;;;;;6.47;5.07;;;;;;;;;;4987857;28;20328;-56
2022/01/13 05:37:11;;;;;;;7.17;5.23;;;;;;;;;;4987757;28;20107;-56
2022/01/13 05:39:36;;;;;;;7.13;5.13;;;;;;;;;;5004333;28;20111;-56
2022/01/13 05:42:02;;;;;;;7.00;5.00;;;;;;;;;;4991087;28;20102;-55
2022/01/13 05:44:27;;;;;;;5.97;4.57;;;;;;;;;;4988448;28;20288;-56
2022/01/13 05:46:52;;;;;;;6.63;5.00;;;;;;;;;;4987500;28;20508;-55
2022/01/13 05:49:17;;;;;;;6.50;5.03;;;;;;;;;;4987744;28;20053;-54
2022/01/13 05:51:43;;;;;;;8.03;5.40;;;;;;;;;;4961317;28;20512;-53
2022/01/13 05:54:08;;;;;;;6.30;4.87;;;;;;;;;;5019294;28;20627;-53
2022/01/13 05:56:33;;;;;;;6.80;4.87;;;;;;;;;;5008545;28;20535;-54
2022/01/13 05:58:58;;;;;;;7.30;5.20;;;;;;;;;;5007476;28;20615;-57
2022/01/13 06:01:24;;;;;;;6.47;4.93;;;;;;;;;;5007431;28;20260;-57
2022/01/13 06:03:49;;;;;;;5.93;4.80;;;;;;;;;;5006865;28;20022;-57
2022/01/13 06:06:14;;;;;;;5.87;4.20;;;;;;;;;;5008384;28;20281;-53
2022/01/13 06:08:39;;;;;;;5.72;4.68;;;;;;;;;;5025839;28;20017;-58
2022/01/13 06:11:04;;;;;;;7.10;5.30;;;;;;;;;;5025839;28;20423;-55
2022/01/13 06:13:30;;;;;;;7.00;5.20;;;;;;;;;;5025630;28;20459;-54
2022/01/13 06:15:55;;;;;;;9.18;5.32;;;;;;;;;;5024489;28;20099;-56
2022/01/13 06:18:24;;;;;;;7.60;4.57;;;;;;;;;;5025530;28;20469;-55
2022/01/13 06:20:50;;;;;;;7.00;4.95;;;;;;;;;;5025470;28;20048;-57
2022/01/13 06:23:15;;;;;;;7.73;4.50;;;;;;;;;;5025074;28;20037;-56
2022/01/13 06:25:40;;;;;;;6.70;4.70;;;;;;;;;;5025586;28;20033;-57
2022/01/13 06:28:06;;;;;;;6.33;4.70;;;;;;;;;;5024782;28;20064;-57
2022/01/13 06:30:32;;;;;;;6.20;4.65;;;;;;;;;;5024638;28;20602;-57
2022/01/13 06:32:57;;;;;;;7.05;4.70;;;;;;;;;;5024998;28;20104;-57
2022/01/13 06:35:22;;;;;;;6.40;4.70;;;;;;;;;;5025559;28;20033;-58
2022/01/13 06:37:48;;;;;;;7.40;4.68;;;;;;;;;;5025219;28;20115;-57
2022/01/13 06:40:14;;;;;;;5.20;3.90;;;;;;;;;;5024946;28;20043;-55
2022/01/13 06:42:39;;;;;;;5.82;4.50;;;;;;;;;;5025305;28;20018;-53
2022/01/13 06:45:05;;;;;;;6.05;4.50;;;;;;;;;;5025230;28;20026;-55
2022/01/13 06:47:30;;;;;;;5.40;4.25;;;;;;;;;;5020014;28;20025;-53
2022/01/13 06:49:55;;;;;;;5.47;4.30;;;;;;;;;;5024823;28;20044;-52
2022/01/13 06:52:21;;;;;;;5.57;4.57;;;;;;;;;;5024704;28;20291;-54
2022/01/13 06:54:46;;;;;;;5.57;4.53;;;;;;;;;;5023187;28;20024;-55
2022/01/13 06:57:11;;;;;;;5.15;4.18;;;;;;;;;;5024741;28;20343;-54
2022/01/13 06:59:36;;;;;;;6.50;4.60;;;;;;;;;;5013718;28;20473;-55
2022/01/13 07:02:02;;;;;;;5.43;4.20;;;;;;;;;;5006014;28;20300;-54
2022/01/13 07:04:28;;;;;;;6.57;4.53;;;;;;;;;;5006751;28;20261;-54
2022/01/13 07:06:53;;;;;;;5.38;4.22;;;;;;;;;;5006112;28;20029;-53
2022/01/13 07:09:18;;;;;;;6.63;4.63;;;;;;;;;;5014154;28;20043;-53
2022/01/13 07:11:44;;;;;;;5.43;4.28;;;;;;;;;;5020082;28;20852;-52
2022/01/13 07:14:09;;;;;;;6.00;4.32;;;;;;;;;;5021239;28;20069;-53
2022/01/13 07:16:34;;;;;;;5.85;4.63;;;;;;;;;;5024973;28;20472;-52
2022/01/13 07:19:00;;;;;;;8.85;4.80;;;;;;;;;;5006796;28;20017;-54
2022/01/13 07:21:27;;;;;;;12.85;5.90;;;;;;;;;;5021444;28;20025;-53
2022/01/13 07:23:52;;;;;;;12.35;6.30;;;;;;;;;;5004875;28;20050;-53
2022/01/13 07:26:17;;;;;;;12.15;5.95;;;;;;;;;;5005576;28;20021;-52
2022/01/13 07:28:43;;;;;;;12.83;5.87;;;;;;;;;;5005238;28;20080;-51
2022/01/13 07:31:08;;;;;;;12.00;5.40;;;;;;;;;;5005295;28;20767;-52
2022/01/13 07:33:33;;;;;;;12.30;5.63;;;;;;;;;;5005163;28;20488;-52
2022/01/13 07:35:58;;;;;;;12.53;6.20;;;;;;;;;;5003683;28;20303;-54
2022/01/13 07:38:24;;;;;;;11.77;6.13;;;;;;;;;;5005988;28;20121;-51
2022/01/13 07:40:49;;;;;;;10.07;5.38;;;;;;;;;;5005441;28;20168;-53
2022/01/13 07:43:21;;;;;;;10.10;5.32;;;;;;;;;;5005103;28;20037;-54
2022/01/13 07:45:47;;;;;;;11.43;5.47;;;;;;;;;;5005031;28;20048;-51
2022/01/13 07:48:12;;;;;;;7.97;5.55;;;;;;;;;;5009632;28;20042;-51
2022/01/13 07:50:37;;;;;;;10.33;5.43;;;;;;;;;;5008653;28;20411;-52
2022/01/13 07:53:03;;;;;;;8.02;4.80;;;;;;;;;;5006753;28;20576;-54
2022/01/13 07:55:28;;;;;;;8.77;5.20;;;;;;;;;;5016352;28;20025;-54
2022/01/13 07:57:53;;;;;;;8.53;4.90;;;;;;;;;;5023749;28;20339;-55
2022/01/13 08:00:18;;;;;;;8.97;5.33;;;;;;;;;;5016474;28;20112;-54
2022/01/13 08:02:44;;;;;;;8.90;5.13;;;;;;;;;;5008831;28;20100;-51
2022/01/13 08:05:09;;;;;;;9.52;5.10;;;;;;;;;;5024333;28;20770;-52
2022/01/13 08:07:34;;;;;;;7.43;4.80;;;;;;;;;;5024355;28;20116;-51
2022/01/13 08:09:59;;;;;;;10.33;5.00;;;;;;;;;;5023922;28;20896;-52
2022/01/13 08:12:25;;;;;;;8.00;4.83;;;;;;;;;;5023625;28;20484;-52
2022/01/13 08:14:51;;;;;;;7.80;4.72;;;;;;;;;;5023562;28;20662;-51
2022/01/13 08:19:45;;;;;;;7.13;4.68;;;;;;;;;;5024289;28;20381;-51
2022/01/13 08:20:05;;;;;;;8.23;5.00;;;;;;;;;;5023789;28;20029;-53
2022/01/13 08:22:30;;;;;;;8.02;4.47;;;;;;;;;;5023093;28;20108;-53
2022/01/13 08:24:55;;;;;;;7.83;4.53;;;;;;;;;;5023691;28;20049;-53
2022/01/13 08:27:20;;;;;;;7.33;4.67;;;;;;;;;;5023878;28;20036;-53
2022/01/13 08:29:45;;;;;;;7.30;4.53;;;;;;;;;;5023830;28;20037;-52
2022/01/13 08:32:11;;;;;;;6.53;4.50;;;;;;;;;;5023367;28;20024;-56
2022/01/13 08:34:36;;;;;;;8.63;5.28;;;;;;;;;;5023656;28;20029;-54
2022/01/13 08:37:01;;;;;;;7.03;4.13;;;;;;;;;;5024147;28;20025;-51
2022/01/13 08:39:26;;;;;;;7.53;4.65;;;;;;;;;;5015546;28;20026;-53
2022/01/13 08:41:52;;;;;;;7.10;4.60;;;;;;;;;;5007556;28;20558;-52
2022/01/13 08:44:17;;;;;;;6.88;4.57;;;;;;;;;;5007133;28;20034;-53
2022/01/13 08:46:42;;;;;;;8.27;4.80;;;;;;;;;;5007060;28;20021;-53
2022/01/13 08:49:09;;;;;;;7.03;4.30;;;;;;;;;;5006884;28;20061;-52
2022/01/13 08:51:34;;;;;;;7.70;4.78;;;;;;;;;;5006763;28;20060;-51
2022/01/13 08:54:00;;;;;;;7.65;4.50;;;;;;;;;;5006973;28;20492;-52
2022/01/13 08:56:25;;;;;;;7.80;5.00;;;;;;;;;;5006836;28;20034;-52
2022/01/13 08:58:50;;;;;;;6.40;4.18;;;;;;;;;;5006772;28;20264;-53
2022/01/13 09:01:15;;;;;;;6.82;4.30;;;;;;;;;;5006681;28;20021;-54
2022/01/13 09:03:41;;;;;;;6.97;4.67;;;;;;;;;;5018741;28;20025;-53
2022/01/13 09:06:06;;;;;;;7.67;4.37;;;;;;;;;;5010778;28;20810;-52
2022/01/13 09:08:31;;;;;;;8.52;4.95;;;;;;;;;;5008771;28;20268;-52
2022/01/13 09:10:57;;;;;;;6.63;4.50;;;;;;;;;;5008972;28;20105;-53
2022/01/13 09:13:22;;;;;;;7.47;4.35;;;;;;;;;;5011899;28;20022;-51
2022/01/13 09:16:00;;;;;;;7.03;4.53;;;;;;;;;;5007251;28;20459;-54
2022/01/13 09:20:57;;;;;;;7.47;4.70;;;;;;;;;;5011730;28;20040;-52
2022/01/13 09:23:22;;;;;;;7.00;4.47;;;;;;;;;;5017456;28;20034;-52
2022/01/13 09:25:48;;;;;;;6.90;4.47;;;;;;;;;;5017359;28;20520;-54
2022/01/13 09:28:13;;;;;;;6.97;4.60;;;;;;;;;;5010503;28;20137;-52
2022/01/13 09:30:39;;;;;;;6.17;4.13;;;;;;;;;;5018020;28;20511;-53
2022/01/13 09:33:04;;;;;;;7.18;4.15;;;;;;;;;;5013004;28;20483;-52
2022/01/13 09:35:29;;;;;;;6.17;4.27;;;;;;;;;;5016891;28;20060;-53
2022/01/13 09:37:54;;;;;;;6.07;4.03;;;;;;;;;;5026229;28;20041;-52
2022/01/13 09:40:20;;;;;;;5.73;4.50;;;;;;;;;;5025367;28;20759;-53
2022/01/13 09:42:45;;;;;;;6.77;4.10;;;;;;;;;;5009488;28;20522;-53
2022/01/13 09:45:11;;;;;;;7.45;4.82;;;;;;;;;;5008242;28;20469;-53
2022/01/13 09:47:36;;;;;;;7.70;4.63;;;;;;;;;;5007922;28;20084;-55
2022/01/13 09:50:05;;;;;;;6.75;4.38;;;;;;;;;;5006003;28;20041;-53
2022/01/13 09:52:30;;;;;;;6.93;4.40;;;;;;;;;;5024346;28;20126;-54
2022/01/13 09:54:55;;;;;;;6.33;4.50;;;;;;;;;;5025980;28;20056;-54
2022/01/13 09:57:20;;;;;;;6.57;4.70;;;;;;;;;;5025794;28;20107;-53
2022/01/13 09:59:46;;;;;;;6.30;3.90;;;;;;;;;;5025638;28;20272;-54
2022/01/13 10:02:11;;;;;;;8.27;6.10;;;;;;;;;;5014820;28;20704;-53
2022/01/13 10:04:49;;;;;;;7.93;5.10;;;;;;;;;;5025224;28;20502;-53
2022/01/13 10:07:18;;;;;;;7.20;4.70;;;;;;;;;;5025868;28;20120;-53
2022/01/13 10:09:56;;;;;;;7.57;4.93;;;;;;;;;;5005564;28;20036;-54
2022/01/13 10:12:30;;;;;;;6.90;3.97;;;;;;;;;;5022860;28;20480;-53
2022/01/13 10:17:24;;;;;;;5.93;4.28;;;;;;;;;;5005985;28;20068;-52
2022/01/13 10:19:50;;;;;;;5.80;4.37;;;;;;;;;;5005806;28;20448;-52
2022/01/13 10:22:16;;;;;;;6.35;4.82;;;;;;;;;;5005733;28;20117;-53
2022/01/13 10:24:42;;;;;;;5.43;3.80;;;;;;;;;;5021611;28;20488;-53
2022/01/13 10:27:08;;;;;;;6.78;4.00;;;;;;;;;;5005525;28;20054;-53
2022/01/13 10:29:36;;;;;;;5.68;4.38;;;;;;;;;;5005829;28;20030;-53
2022/01/13 10:32:01;;;;;;;5.90;4.00;;;;;;;;;;5017116;28;20018;-54
2022/01/13 10:34:27;;;;;;;5.13;4.00;;;;;;;;;;5009105;28;20030;-54
2022/01/13 10:37:01;;;;;;;6.03;4.25;;;;;;;;;;5012502;28;20060;-52
2022/01/13 10:39:45;;;;;;;6.95;4.65;;;;;;;;;;4980285;28;20108;-54
2022/01/13 10:43:06;;;;;;;5.78;4.47;;;;;;;;;;5017855;28;20049;-54
2022/01/13 10:44:58;;;;;;;7.07;4.20;;;;;;;;;;5005789;28;20041;-54
2022/01/13 10:47:24;;;;;;;6.07;4.10;;;;;;;;;;5004712;28;20412;-52
2022/01/13 10:49:50;;;;;;;4.90;3.53;;;;;;;;;;5011513;28;20292;-56
2022/01/13 10:52:26;;;;;;;6.90;4.13;;;;;;;;;;5024241;28;20355;-56
2022/01/13 10:55:03;;;;;;;5.13;4.30;;;;;;;;;;5019990;28;20463;-57
2022/01/13 10:57:29;;;;;;;5.88;4.32;;;;;;;;;;5007356;28;20018;-55
2022/01/13 10:59:54;;;;;;;7.18;3.97;;;;;;;;;;5021888;28;20032;-59
2022/01/13 11:02:19;;;;;;;6.40;4.30;;;;;;;;;;5015435;28;20918;-57
2022/01/13 11:04:45;;;;;;;6.47;4.28;;;;;;;;;;5018665;28;20767;-60
2022/01/13 11:07:14;;;;;;;6.00;4.05;;;;;;;;;;5012619;28;20057;-61
2022/01/13 11:09:42;;;;;;;6.22;4.53;;;;;;;;;;5006746;28;20512;-58
2022/01/13 11:12:09;;;;;;;6.32;4.10;;;;;;;;;;5005237;28;20052;-55
2022/01/13 11:14:40;;;;;;;6.78;4.45;;;;;;;;;;5007429;28;20044;-58
2022/01/13 11:17:06;;;;;;;6.05;4.07;;;;;;;;;;5011131;28;20052;-54
2022/01/13 11:19:32;;;;;;;5.63;4.45;;;;;;;;;;5024769;28;20029;-54
2022/01/13 11:21:57;;;;;;;6.27;4.27;;;;;;;;;;5023035;28;20041;-55
2022/01/13 11:24:22;;;;;;;6.37;4.30;;;;;;;;;;5024019;28;20388;-52
2022/01/13 11:26:47;;;;;;;8.57;4.23;;;;;;;;;;5024615;28;20100;-53
2022/01/13 11:29:12;;;;;;;6.00;4.27;;;;;;;;;;5023303;28;20820;-55
2022/01/13 11:31:38;;;;;;;5.30;4.13;;;;;;;;;;5024520;28;20401;-53
2022/01/13 11:34:03;;;;;;;7.17;4.60;;;;;;;;;;5021662;28;20423;-54
2022/01/13 11:36:28;;;;;;;6.17;4.27;;;;;;;;;;5019571;28;20288;-53
2022/01/13 11:38:55;;;;;;;5.90;3.92;;;;;;;;;;5024296;28;20024;-55
2022/01/13 11:41:20;;;;;;;7.05;4.20;;;;;;;;;;5024139;28;20566;-52
2022/01/13 11:43:45;;;;;;;5.87;4.50;;;;;;;;;;5024201;28;20022;-52
2022/01/13 11:46:21;;;;;;;5.50;4.03;;;;;;;;;;5024135;28;20074;-55
2022/01/13 11:48:56;;;;;;;5.80;4.30;;;;;;;;;;5008260;28;20048;-52
2022/01/13 11:51:22;;;;;;;7.05;4.10;;;;;;;;;;5024087;28;20471;-52
2022/01/13 11:53:54;;;;;;;6.40;4.15;;;;;;;;;;5024225;28;20033;-54
2022/01/13 11:56:20;;;;;;;5.60;4.43;;;;;;;;;;5024148;28;20033;-53
2022/01/13 11:58:45;;;;;;;5.57;4.07;;;;;;;;;;5023063;28;20029;-56
2022/01/13 12:01:14;;;;;;;5.45;4.18;;;;;;;;;;5023051;28;20568;-55
2022/01/13 12:03:39;;;;;;;6.97;3.92;;;;;;;;;;5023924;28;20025;-54
2022/01/13 12:06:05;;;;;;;5.38;4.18;;;;;;;;;;5024073;28;20018;-53
2022/01/13 12:08:38;;;;;;;5.63;4.50;;;;;;;;;;5022405;28;20017;-54
2022/01/13 12:11:03;;;;;;;5.68;3.95;;;;;;;;;;5018253;28;20099;-55
2022/01/13 12:13:28;;;;;;;6.78;4.20;;;;;;;;;;5005802;28;20421;-52
2022/01/13 12:15:54;;;;;;;5.63;3.97;;;;;;;;;;5019602;28;20512;-52
2022/01/13 12:18:39;;;;;;;6.85;4.53;;;;;;;;;;5027567;28;20272;-52
2022/01/13 12:21:21;;;;;;;6.00;3.92;;;;;;;;;;5027590;28;20022;-52
2022/01/13 12:23:46;;;;;;;5.90;4.00;;;;;;;;;;4998600;28;20558;-53
2022/01/13 12:26:30;;;;;;;5.03;3.87;;;;;;;;;;5023354;28;20033;-52
2022/01/13 12:29:14;;;;;;;7.28;4.22;;;;;;;;;;5027750;28;20026;-52
2022/01/13 12:31:49;;;;;;;5.80;4.28;;;;;;;;;;5014699;28;20042;-53
2022/01/13 12:34:21;;;;;;;6.32;4.05;;;;;;;;;;5023756;28;20029;-51
2022/01/13 12:36:47;;;;;;;6.03;4.45;;;;;;;;;;5027760;28;20033;-52
2022/01/13 12:39:14;;;;;;;6.00;3.80;;;;;;;;;;5027610;28;20052;-51
2022/01/13 12:42:02;;;;;;;6.47;4.10;;;;;;;;;;5026356;28;20025;-52
2022/01/13 12:47:11;;;;;;;5.68;4.10;;;;;;;;;;5027485;28;20024;-52
2022/01/13 12:49:37;;;;;;;5.53;3.95;;;;;;;;;;5020300;28;20030;-55
2022/01/13 12:52:02;;;;;;;25.75;6.30;;;;;;;;;;5006394;28;20029;-52
2022/01/13 12:54:28;;;;;;;14.15;5.22;;;;;;;;;;5008867;28;20137;-52
2022/01/13 12:56:53;;;;;;;11.27;5.23;;;;;;;;;;5027642;28;20025;-53
2022/01/13 12:59:18;;;;;;;18.80;5.75;;;;;;;;;;5027659;28;20476;-52
2022/01/13 13:01:43;;;;;;;16.20;5.33;;;;;;;;;;5025600;28;20037;-52
2022/01/13 13:04:12;;;;;;;17.27;5.10;;;;;;;;;;5027211;28;20035;-51
2022/01/13 13:06:40;;;;;;;16.38;5.70;;;;;;;;;;5026473;28;20037;-54
2022/01/13 13:09:06;;;;;;;19.80;5.38;;;;;;;;;;5026641;28;20618;-52
2022/01/13 13:11:32;;;;;;;22.30;6.65;;;;;;;;;;5027025;28;20033;-52
2022/01/13 13:13:58;;;;;;;17.27;6.10;;;;;;;;;;5026758;28;20029;-54
2022/01/13 13:16:23;;;;;;;18.92;5.70;;;;;;;;;;5009874;28;20134;-51
2022/01/13 13:18:49;;;;;;;20.27;5.57;;;;;;;;;;5006827;28;20113;-54
2022/01/13 13:21:14;;;;;;;18.38;5.57;;;;;;;;;;5007146;28;20283;-52
2022/01/13 13:23:40;;;;;;;24.47;5.83;;;;;;;;;;5017729;28;20405;-53
2022/01/13 13:26:10;;;;;;;17.45;5.35;;;;;;;;;;5026301;28;20276;-52
2022/01/13 13:28:36;;;;;;;23.58;6.32;;;;;;;;;;5026620;28;20029;-54
2022/01/13 13:31:02;;;;;;;25.42;6.55;;;;;;;;;;5026507;28;20517;-55
2022/01/13 13:33:31;;;;;;;25.48;6.72;;;;;;;;;;5026152;28;20025;-56
2022/01/13 13:36:19;;;;;;;25.73;6.80;;;;;;;;;;5013265;28;20030;-54
2022/01/13 13:39:08;;;;;;;18.33;8.30;;;;;;;;;;5020462;28;20385;-55
2022/01/13 13:41:34;;;;;;;23.10;7.20;;;;;;;;;;5010939;28;20040;-54
2022/01/13 13:43:59;;;;;;;33.08;7.68;;;;;;;;;;5026329;28;20033;-55
2022/01/13 13:46:24;;;;;;;24.92;7.07;;;;;;;;;;5026172;28;20468;-54
2022/01/13 13:48:50;;;;;;;31.50;8.63;;;;;;;;;;5026574;28;20033;-54
2022/01/13 13:51:16;;;;;;;27.33;7.23;;;;;;;;;;5026168;28;20504;-55
2022/01/13 13:54:00;;;;;;;24.15;7.32;;;;;;;;;;5026186;28;20271;-54
2022/01/13 13:56:25;;;;;;;27.92;7.22;;;;;;;;;;5026304;28;20097;-55
2022/01/13 13:58:50;;;;;;;30.08;8.60;;;;;;;;;;5026117;28;20112;-56
2022/01/13 14:01:16;;;;;;;29.20;7.40;;;;;;;;;;5024606;28;20075;-55
2022/01/13 14:03:42;;;;;;;26.20;7.40;;;;;;;;;;5025968;28;20880;-53
2022/01/13 14:06:07;;;;;;;31.73;7.25;;;;;;;;;;5025584;28;20276;-53
2022/01/13 14:08:33;;;;;;;30.48;7.55;;;;;;;;;;5025861;28;20032;-55
2022/01/13 14:11:10;;;;;;;30.45;7.45;;;;;;;;;;5025854;28;20087;-55
2022/01/13 14:13:35;;;;;;;32.40;7.63;;;;;;;;;;5025596;28;20044;-52
2022/01/13 14:16:00;;;;;;;29.23;7.57;;;;;;;;;;5012263;28;20030;-52
2022/01/13 14:18:26;;;;;;;32.70;9.27;;;;;;;;;;5018751;28;20481;-52
2022/01/13 14:20:58;;;;;;;27.07;7.33;;;;;;;;;;5025894;28;20613;-55
2022/01/13 14:23:24;;;;;;;32.72;8.73;;;;;;;;;;5025606;28;20499;-54
2022/01/13 14:25:50;;;;;;;27.27;7.35;;;;;;;;;;5025668;28;20124;-54
2022/01/13 14:28:25;;;;;;;30.35;7.53;;;;;;;;;;5025458;28;20053;-52
2022/01/13 14:30:53;;;;;;;30.17;7.97;;;;;;;;;;5022449;28;20064;-52
2022/01/13 14:33:20;;;;;;;24.90;8.20;;;;;;;;;;5008410;28;20052;-54
2022/01/13 14:35:58;;;;;;;31.48;8.07;;;;;;;;;;5016655;28;20041;-53
2022/01/13 14:38:23;;;;;;;25.10;7.35;;;;;;;;;;5025133;28;20029;-55
2022/01/13 14:40:48;;;;;;;20.27;7.20;;;;;;;;;;5025502;28;20385;-54
2022/01/13 14:43:22;;;;;;;26.23;7.57;;;;;;;;;;5023781;28;20458;-54
2022/01/13 14:46:04;;;;;;;26.70;8.35;;;;;;;;;;5025200;28;20021;-53
2022/01/13 14:48:29;;;;;;;27.23;8.02;;;;;;;;;;5025076;28;20072;-57
2022/01/13 14:51:04;;;;;;;21.90;7.17;;;;;;;;;;5025070;28;20111;-56
2022/01/13 14:53:29;;;;;;;24.83;7.25;;;;;;;;;;5024830;28;20280;-54
2022/01/13 14:55:54;;;;;;;25.30;7.37;;;;;;;;;;5012816;28;20048;-55
2022/01/13 14:58:19;;;;;;;22.70;6.90;;;;;;;;;;5005439;28;20036;-53
2022/01/13 15:00:45;;;;;;;19.70;7.13;;;;;;;;;;5005074;28;20096;-53
2022/01/13 15:03:11;;;;;;;21.33;7.03;;;;;;;;;;5004994;28;20080;-53